Time;durP1;ratioP1;P1;durP2;ratioP2;P2;SDS_P1;SDS_P2;PMS_P1;PMS_P2;Temp;Humidity;BMP_temperature;BMP_pressure;BME280_temperature;BME280_humidity;BME280_pressure;Samples;Min_cycle;Max_cycle;Signal;HPM_P1;HPM_P2
2022/08/27 00:01:19;;;;;;;26.30;24.80;;;;;;;;;;5039213;28;20601;-63
2022/08/27 00:03:45;;;;;;;33.13;31.33;;;;;;;;;;5033865;28;20055;-64
2022/08/27 00:06:16;;;;;;;31.50;29.65;;;;;;;;;;5034372;28;20029;-64
2022/08/27 00:08:42;;;;;;;28.83;27.20;;;;;;;;;;5037471;28;20056;-63
2022/08/27 00:11:09;;;;;;;29.02;27.42;;;;;;;;;;5035146;28;20037;-64
2022/08/27 00:13:35;;;;;;;30.58;28.98;;;;;;;;;;5035499;28;20102;-64
2022/08/27 00:16:02;;;;;;;32.40;30.67;;;;;;;;;;5036631;28;20083;-64
2022/08/27 00:18:28;;;;;;;31.35;29.73;;;;;;;;;;5038258;28;20026;-63
2022/08/27 00:20:53;;;;;;;39.08;37.08;;;;;;;;;;5036830;28;20344;-64
2022/08/27 00:23:18;;;;;;;34.17;32.40;;;;;;;;;;5034833;28;20075;-64
2022/08/27 00:25:44;;;;;;;33.15;31.42;;;;;;;;;;5037389;28;20470;-64
2022/08/27 00:28:10;;;;;;;33.00;31.20;;;;;;;;;;5035464;28;20505;-64
2022/08/27 00:30:35;;;;;;;31.70;29.98;;;;;;;;;;5035140;28;20029;-64
2022/08/27 00:33:03;;;;;;;38.88;36.88;;;;;;;;;;5035837;28;20120;-63
2022/08/27 00:35:28;;;;;;;32.65;30.70;;;;;;;;;;5037569;28;20082;-63
2022/08/27 00:37:53;;;;;;;34.28;32.47;;;;;;;;;;5036632;28;20106;-62
2022/08/27 00:40:20;;;;;;;40.30;38.20;;;;;;;;;;5036422;28;20447;-62
2022/08/27 00:42:46;;;;;;;40.00;37.80;;;;;;;;;;5036288;28;20129;-62
2022/08/27 00:45:17;;;;;;;41.63;39.45;;;;;;;;;;5034166;28;20155;-62
2022/08/27 00:47:53;;;;;;;39.30;36.97;;;;;;;;;;5034504;28;20045;-62
2022/08/27 00:50:39;;;;;;;48.30;45.80;;;;;;;;;;5035932;28;20030;-62
2022/08/27 00:53:11;;;;;;;47.42;45.00;;;;;;;;;;5037773;28;20052;-63
2022/08/27 00:55:52;;;;;;;48.38;45.88;;;;;;;;;;5033941;28;20029;-63
2022/08/27 00:58:30;;;;;;;62.45;59.10;;;;;;;;;;5036278;28;20664;-63
2022/08/27 01:00:58;;;;;;;53.55;50.85;;;;;;;;;;5034184;28;20053;-63
2022/08/27 01:03:25;;;;;;;51.15;48.55;;;;;;;;;;5033474;28;20021;-63
2022/08/27 01:05:52;;;;;;;66.28;62.97;;;;;;;;;;5035243;28;20466;-63
2022/08/27 01:08:22;;;;;;;56.78;53.67;;;;;;;;;;5034584;28;20028;-64
2022/08/27 01:10:48;;;;;;;54.70;51.93;;;;;;;;;;5034852;28;20040;-63
2022/08/27 01:13:17;;;;;;;67.03;63.67;;;;;;;;;;5036849;28;20029;-63
2022/08/27 01:15:42;;;;;;;63.45;60.22;;;;;;;;;;5033494;28;20041;-63
2022/08/27 01:18:10;;;;;;;74.05;70.35;;;;;;;;;;5033521;28;20048;-63
2022/08/27 01:21:15;;;;;;;62.63;59.47;;;;;;;;;;5037078;28;20033;-63
2022/08/27 01:24:03;;;;;;;53.80;50.97;;;;;;;;;;5035256;28;20029;-63
2022/08/27 01:26:29;;;;;;;57.97;54.90;;;;;;;;;;5035292;28;20037;-63
2022/08/27 01:28:56;;;;;;;56.78;53.90;;;;;;;;;;5036217;28;20029;-62
2022/08/27 01:31:21;;;;;;;60.05;57.03;;;;;;;;;;5034323;28;20406;-63
2022/08/27 01:33:56;;;;;;;64.53;61.28;;;;;;;;;;5034009;28;20021;-63
2022/08/27 01:36:21;;;;;;;71.03;67.20;;;;;;;;;;5034255;28;20459;-63
2022/08/27 01:38:47;;;;;;;65.28;61.95;;;;;;;;;;5035130;28;20055;-63
2022/08/27 01:41:12;;;;;;;61.13;58.00;;;;;;;;;;5037191;28;20033;-63
2022/08/27 01:43:37;;;;;;;51.47;48.85;;;;;;;;;;5033928;28;20045;-63
2022/08/27 01:46:03;;;;;;;49.42;46.88;;;;;;;;;;5035313;28;20068;-63
2022/08/27 01:48:29;;;;;;;54.08;50.70;;;;;;;;;;5036573;28;20052;-63
2022/08/27 01:50:54;;;;;;;61.40;58.30;;;;;;;;;;5039192;28;20044;-63
2022/08/27 01:53:22;;;;;;;56.63;53.78;;;;;;;;;;5038507;28;20044;-63
2022/08/27 01:55:49;;;;;;;49.40;46.83;;;;;;;;;;5035404;28;20448;-63
2022/08/27 01:58:16;;;;;;;46.72;44.35;;;;;;;;;;5035868;28;20529;-63
2022/08/27 02:00:44;;;;;;;46.10;43.75;;;;;;;;;;5034613;28;20071;-63
2022/08/27 02:03:10;;;;;;;45.17;42.85;;;;;;;;;;5036072;28;20041;-63
2022/08/27 02:05:38;;;;;;;48.10;45.58;;;;;;;;;;5040082;28;20037;-62
2022/08/27 02:08:04;;;;;;;53.75;50.83;;;;;;;;;;5041621;28;20040;-63
2022/08/27 02:10:36;;;;;;;49.78;47.15;;;;;;;;;;5036741;28;20572;-63
2022/08/27 02:13:02;;;;;;;40.40;38.28;;;;;;;;;;5038293;28;20660;-64
2022/08/27 02:15:28;;;;;;;52.95;50.25;;;;;;;;;;5037900;28;20128;-64
2022/08/27 02:17:54;;;;;;;59.47;56.45;;;;;;;;;;5038441;28;20028;-64
2022/08/27 02:20:21;;;;;;;47.35;44.92;;;;;;;;;;5029393;28;20363;-64
2022/08/27 02:22:46;;;;;;;44.50;42.13;;;;;;;;;;5038789;28;20044;-64
2022/08/27 02:25:14;;;;;;;58.90;55.90;;;;;;;;;;5035220;28;20037;-63
2022/08/27 02:27:41;;;;;;;52.47;49.78;;;;;;;;;;5038963;28;20033;-64
2022/08/27 02:30:09;;;;;;;51.03;48.42;;;;;;;;;;5029721;28;20581;-65
2022/08/27 02:32:34;;;;;;;44.85;42.55;;;;;;;;;;5037964;28;20366;-64
2022/08/27 02:35:00;;;;;;;40.20;38.10;;;;;;;;;;5039169;28;20462;-62
2022/08/27 02:37:26;;;;;;;36.60;34.70;;;;;;;;;;5035745;28;20089;-62
2022/08/27 02:39:52;;;;;;;32.40;30.63;;;;;;;;;;5038293;28;20296;-64
2022/08/27 02:42:17;;;;;;;32.83;31.13;;;;;;;;;;5045955;28;20036;-64
2022/08/27 02:44:43;;;;;;;34.70;32.85;;;;;;;;;;5039897;28;20057;-63
2022/08/27 02:47:08;;;;;;;30.98;29.33;;;;;;;;;;5034638;28;20378;-64
2022/08/27 02:49:33;;;;;;;31.42;29.75;;;;;;;;;;5036800;28;20095;-64
2022/08/27 02:52:02;;;;;;;33.03;31.25;;;;;;;;;;5036386;28;20069;-62
2022/08/27 02:54:28;;;;;;;38.33;36.25;;;;;;;;;;5036544;28;20394;-64
2022/08/27 02:56:54;;;;;;;39.42;37.35;;;;;;;;;;5037131;28;20064;-63
2022/08/27 02:59:20;;;;;;;30.33;28.75;;;;;;;;;;5029023;28;20035;-64
2022/08/27 03:01:46;;;;;;;30.73;29.05;;;;;;;;;;5035810;28;20036;-63
2022/08/27 03:04:12;;;;;;;35.78;33.92;;;;;;;;;;5037242;28;20036;-63
2022/08/27 03:06:37;;;;;;;33.28;31.40;;;;;;;;;;5037378;28;20376;-63
2022/08/27 03:09:04;;;;;;;30.60;28.98;;;;;;;;;;5034926;28;20029;-63
2022/08/27 03:11:30;;;;;;;30.55;28.92;;;;;;;;;;5038901;28;20112;-63
2022/08/27 03:13:57;;;;;;;27.73;26.02;;;;;;;;;;5039847;28;20213;-64
2022/08/27 03:16:23;;;;;;;32.78;31.05;;;;;;;;;;5035144;28;20371;-65
2022/08/27 03:18:50;;;;;;;32.03;30.30;;;;;;;;;;5042167;28;20033;-67
2022/08/27 03:21:21;;;;;;;34.78;32.95;;;;;;;;;;5035608;28;20106;-65
2022/08/27 03:23:47;;;;;;;40.20;38.10;;;;;;;;;;5036451;28;20027;-66
2022/08/27 03:26:14;;;;;;;29.13;27.58;;;;;;;;;;5038559;28;20112;-65
2022/08/27 03:28:39;;;;;;;28.77;27.08;;;;;;;;;;5036839;28;20033;-66
2022/08/27 03:31:11;;;;;;;34.17;32.25;;;;;;;;;;5034636;28;20029;-65
2022/08/27 03:33:38;;;;;;;30.67;29.08;;;;;;;;;;5035996;28;20454;-66
2022/08/27 03:36:06;;;;;;;31.30;29.58;;;;;;;;;;5038031;28;20037;-63
2022/08/27 03:38:31;;;;;;;36.83;34.88;;;;;;;;;;5035930;28;20064;-64
2022/08/27 03:40:57;;;;;;;33.30;31.58;;;;;;;;;;5036914;28;20059;-64
2022/08/27 03:43:22;;;;;;;34.45;32.63;;;;;;;;;;5026190;28;20033;-65
2022/08/27 03:45:49;;;;;;;33.25;31.50;;;;;;;;;;5024471;28;20040;-63
2022/08/27 03:48:17;;;;;;;39.53;37.47;;;;;;;;;;5033315;28;20068;-64
2022/08/27 03:50:45;;;;;;;35.63;33.70;;;;;;;;;;5035357;28;20072;-63
2022/08/27 03:53:11;;;;;;;33.78;31.98;;;;;;;;;;5034652;28;20029;-63
2022/08/27 03:55:37;;;;;;;34.25;32.42;;;;;;;;;;5035414;28;20474;-64
2022/08/27 03:58:03;;;;;;;36.22;34.35;;;;;;;;;;5034856;28;20040;-63
2022/08/27 04:00:29;;;;;;;39.00;36.95;;;;;;;;;;5034531;28;20083;-63
2022/08/27 04:02:54;;;;;;;34.53;32.72;;;;;;;;;;5037574;28;20109;-63
2022/08/27 04:05:21;;;;;;;37.97;35.83;;;;;;;;;;5036050;28;20140;-63
2022/08/27 04:07:47;;;;;;;37.40;35.35;;;;;;;;;;5035180;28;20378;-63
2022/08/27 04:10:13;;;;;;;39.42;37.25;;;;;;;;;;5036360;28;20525;-63
2022/08/27 04:12:39;;;;;;;46.47;43.95;;;;;;;;;;5034745;28;20048;-63
2022/08/27 04:15:06;;;;;;;39.53;37.42;;;;;;;;;;5034934;28;20340;-63
2022/08/27 04:17:32;;;;;;;39.95;37.78;;;;;;;;;;5035847;28;20048;-63
2022/08/27 04:20:01;;;;;;;41.03;38.78;;;;;;;;;;5035029;28;20029;-63
2022/08/27 04:22:26;;;;;;;47.28;44.58;;;;;;;;;;5035515;28;20484;-63
2022/08/27 04:24:53;;;;;;;46.50;44.00;;;;;;;;;;5037225;28;20087;-63
2022/08/27 04:27:19;;;;;;;43.92;41.53;;;;;;;;;;5037319;28;20472;-63
2022/08/27 04:29:45;;;;;;;42.42;40.08;;;;;;;;;;5035934;28;20029;-63
2022/08/27 04:32:11;;;;;;;41.85;39.65;;;;;;;;;;5034056;28;20114;-63
2022/08/27 04:34:36;;;;;;;44.72;42.38;;;;;;;;;;5036111;28;20036;-63
2022/08/27 04:37:02;;;;;;;48.65;46.03;;;;;;;;;;5033105;28;20037;-63
2022/08/27 04:39:29;;;;;;;48.53;45.92;;;;;;;;;;5031903;28;20451;-63
2022/08/27 04:41:58;;;;;;;48.22;45.63;;;;;;;;;;5033204;28;20044;-63
2022/08/27 04:44:26;;;;;;;52.97;50.15;;;;;;;;;;5035811;28;20033;-64
2022/08/27 04:46:58;;;;;;;49.88;46.95;;;;;;;;;;5032732;28;20056;-65
2022/08/27 04:49:24;;;;;;;48.70;46.10;;;;;;;;;;5033825;28;20037;-64
2022/08/27 04:51:50;;;;;;;59.65;56.55;;;;;;;;;;5035136;28;20538;-65
2022/08/27 04:54:15;;;;;;;51.38;48.58;;;;;;;;;;5031163;28;20116;-63
2022/08/27 04:56:41;;;;;;;49.13;46.53;;;;;;;;;;5036050;28;20033;-64
2022/08/27 04:59:08;;;;;;;53.00;50.25;;;;;;;;;;5034020;28;20366;-65
2022/08/27 05:01:35;;;;;;;53.63;50.80;;;;;;;;;;5035054;28;20033;-64
2022/08/27 05:04:02;;;;;;;58.13;55.03;;;;;;;;;;5034013;28;20047;-64
2022/08/27 05:06:27;;;;;;;63.75;60.25;;;;;;;;;;5033437;28;20044;-64
2022/08/27 05:08:53;;;;;;;63.00;59.75;;;;;;;;;;5032426;28;20097;-64
2022/08/27 05:11:19;;;;;;;52.47;49.70;;;;;;;;;;5028450;28;20057;-60
2022/08/27 05:13:46;;;;;;;52.20;49.50;;;;;;;;;;5031839;28;20025;-62
2022/08/27 05:16:15;;;;;;;53.50;50.70;;;;;;;;;;5031400;28;20040;-60
2022/08/27 05:18:41;;;;;;;41.72;39.53;;;;;;;;;;5035437;28;20361;-60
2022/08/27 05:21:06;;;;;;;47.67;44.97;;;;;;;;;;5035958;28;20029;-60
2022/08/27 05:23:33;;;;;;;46.78;44.30;;;;;;;;;;5035265;28;20133;-60
2022/08/27 05:25:59;;;;;;;53.38;50.58;;;;;;;;;;5036018;28;20060;-60
2022/08/27 05:28:26;;;;;;;64.50;61.10;;;;;;;;;;5038556;28;20083;-62
2022/08/27 05:30:55;;;;;;;55.28;52.25;;;;;;;;;;5039235;28;20106;-60
2022/08/27 05:33:24;;;;;;;56.42;53.42;;;;;;;;;;5038068;28;20492;-60
2022/08/27 05:35:52;;;;;;;50.97;48.13;;;;;;;;;;5036554;28;20124;-60
2022/08/27 05:38:18;;;;;;;52.55;49.75;;;;;;;;;;5036685;28;20025;-62
2022/08/27 05:40:44;;;;;;;55.05;52.20;;;;;;;;;;5035554;28;20099;-60
2022/08/27 05:43:14;;;;;;;57.65;53.88;;;;;;;;;;5037867;28;20061;-60
2022/08/27 05:45:46;;;;;;;56.60;53.67;;;;;;;;;;5034233;28;20127;-62
2022/08/27 05:48:14;;;;;;;60.80;57.50;;;;;;;;;;5033863;28;20057;-60
2022/08/27 05:50:40;;;;;;;54.67;51.83;;;;;;;;;;5038158;28;20098;-60
2022/08/27 05:53:06;;;;;;;61.03;57.88;;;;;;;;;;5035800;28;20059;-60
2022/08/27 05:55:40;;;;;;;53.25;50.42;;;;;;;;;;5035607;28;20057;-60
2022/08/27 05:58:07;;;;;;;65.40;61.97;;;;;;;;;;5038947;28;20059;-60
2022/08/27 06:03:21;;;;;;;46.03;43.63;;;;;;;;;;5035925;28;20498;-60
2022/08/27 06:05:46;;;;;;;43.28;40.97;;;;;;;;;;5037253;28;20037;-60
2022/08/27 06:08:12;;;;;;;48.50;45.95;;;;;;;;;;5038389;28;20091;-60
2022/08/27 06:10:41;;;;;;;45.85;43.45;;;;;;;;;;5036431;28;20466;-62
2022/08/27 06:13:07;;;;;;;43.33;41.03;;;;;;;;;;5036109;28;20095;-60
2022/08/27 06:15:32;;;;;;;36.25;34.35;;;;;;;;;;5035427;28;20037;-60
2022/08/27 06:17:57;;;;;;;39.38;37.30;;;;;;;;;;5034754;28;20037;-60
2022/08/27 06:20:23;;;;;;;38.85;36.80;;;;;;;;;;5035854;28;20039;-62
2022/08/27 06:22:49;;;;;;;46.08;43.67;;;;;;;;;;5034385;28;20110;-60
2022/08/27 06:25:14;;;;;;;38.72;36.67;;;;;;;;;;5034384;28;20160;-60
2022/08/27 06:27:39;;;;;;;32.50;30.75;;;;;;;;;;5035445;28;20103;-60
2022/08/27 06:30:05;;;;;;;33.80;32.00;;;;;;;;;;5037759;28;20029;-62
2022/08/27 06:32:31;;;;;;;29.45;27.73;;;;;;;;;;5038101;28;20033;-62
2022/08/27 06:34:57;;;;;;;32.13;30.42;;;;;;;;;;5039337;28;20037;-61
2022/08/27 06:37:22;;;;;;;32.80;31.00;;;;;;;;;;5037031;28;20043;-61
2022/08/27 06:39:47;;;;;;;31.83;30.13;;;;;;;;;;5035134;28;20088;-61
2022/08/27 06:42:13;;;;;;;33.10;31.17;;;;;;;;;;5038393;28;20059;-61
2022/08/27 06:44:38;;;;;;;40.83;38.72;;;;;;;;;;5036973;28;20036;-61
2022/08/27 06:47:04;;;;;;;42.15;39.85;;;;;;;;;;5034808;28;20068;-61
2022/08/27 06:49:29;;;;;;;37.70;35.67;;;;;;;;;;5037276;28;20043;-61
2022/08/27 06:51:55;;;;;;;30.20;28.55;;;;;;;;;;5037977;28;20116;-61
2022/08/27 06:54:20;;;;;;;49.55;46.97;;;;;;;;;;5035630;28;20022;-61
2022/08/27 06:56:48;;;;;;;32.55;30.80;;;;;;;;;;5035338;28;20037;-61
2022/08/27 06:59:15;;;;;;;34.10;32.20;;;;;;;;;;5040448;28;20459;-62
2022/08/27 07:01:43;;;;;;;36.20;34.20;;;;;;;;;;5038458;28;20154;-62
2022/08/27 07:04:11;;;;;;;36.00;34.10;;;;;;;;;;5036286;28;20518;-61
2022/08/27 07:06:37;;;;;;;37.70;35.67;;;;;;;;;;5033994;28;20087;-62
2022/08/27 07:09:04;;;;;;;28.58;26.73;;;;;;;;;;5034469;28;20041;-62
2022/08/27 07:11:32;;;;;;;39.40;37.25;;;;;;;;;;5035433;28;20520;-61
2022/08/27 07:13:59;;;;;;;40.50;38.40;;;;;;;;;;5036032;28;20501;-62
2022/08/27 07:16:26;;;;;;;40.80;38.63;;;;;;;;;;5036783;28;20451;-62
2022/08/27 07:18:54;;;;;;;34.55;32.75;;;;;;;;;;5034864;28;21323;-61
2022/08/27 07:21:20;;;;;;;27.90;26.00;;;;;;;;;;5034002;28;20482;-61
2022/08/27 07:23:47;;;;;;;34.60;32.80;;;;;;;;;;5039064;28;20037;-61
2022/08/27 07:26:13;;;;;;;45.95;43.50;;;;;;;;;;5034989;28;20049;-61
2022/08/27 07:28:41;;;;;;;38.95;36.85;;;;;;;;;;5032337;28;20041;-61
2022/08/27 07:31:08;;;;;;;43.92;41.60;;;;;;;;;;5036556;28;20060;-60
2022/08/27 07:33:38;;;;;;;30.02;28.42;;;;;;;;;;5034891;28;20043;-60
2022/08/27 07:36:05;;;;;;;29.85;28.25;;;;;;;;;;5035235;28;20030;-60
2022/08/27 07:38:30;;;;;;;32.35;30.65;;;;;;;;;;5033592;28;20033;-61
2022/08/27 07:40:56;;;;;;;25.88;24.42;;;;;;;;;;5037656;28;20207;-60
2022/08/27 07:46:05;;;;;;;47.85;45.13;;;;;;;;;;5037170;28;20057;-61
2022/08/27 07:48:33;;;;;;;24.40;22.38;;;;;;;;;;5039061;28;20057;-61
2022/08/27 07:51:02;;;;;;;23.85;22.55;;;;;;;;;;5035095;28;20032;-60
2022/08/27 07:53:27;;;;;;;22.17;20.98;;;;;;;;;;5034926;28;20073;-61
2022/08/27 07:55:53;;;;;;;22.95;21.75;;;;;;;;;;5034902;28;20032;-60
2022/08/27 07:58:18;;;;;;;15.93;15.02;;;;;;;;;;5036556;28;20040;-60
2022/08/27 08:00:44;;;;;;;18.25;17.25;;;;;;;;;;5035762;28;20025;-60
2022/08/27 08:03:11;;;;;;;22.85;21.55;;;;;;;;;;5034674;28;20063;-60
2022/08/27 08:05:41;;;;;;;27.08;25.60;;;;;;;;;;5030491;28;20133;-60
2022/08/27 08:08:07;;;;;;;;;;;;;;;;;;5036480;28;20116;-60
2022/08/27 08:10:38;;;;;;;13.65;12.75;;;;;;;;;;5035694;28;20036;-60
2022/08/27 08:13:04;;;;;;;17.92;16.92;;;;;;;;;;5033918;28;20025;-60
2022/08/27 08:15:30;;;;;;;18.95;17.88;;;;;;;;;;5033657;28;20047;-60
2022/08/27 08:17:55;;;;;;;10.73;10.02;;;;;;;;;;5034368;28;20029;-60
2022/08/27 08:20:20;;;;;;;15.18;14.27;;;;;;;;;;5033827;28;20500;-60
2022/08/27 08:22:47;;;;;;;17.15;16.13;;;;;;;;;;5036265;28;20067;-59
2022/08/27 08:25:13;;;;;;;29.77;28.23;;;;;;;;;;5038779;28;20029;-60
2022/08/27 08:27:40;;;;;;;31.10;29.48;;;;;;;;;;5033060;28;20415;-60
2022/08/27 08:30:06;;;;;;;32.13;30.35;;;;;;;;;;5033907;28;20037;-60
2022/08/27 08:32:34;;;;;;;30.77;29.02;;;;;;;;;;5034751;28;20040;-60
2022/08/27 08:35:00;;;;;;;35.03;33.13;;;;;;;;;;5033299;28;20025;-60
2022/08/27 08:37:26;;;;;;;23.88;22.60;;;;;;;;;;5035144;28;20037;-59
2022/08/27 08:39:53;;;;;;;13.50;12.70;;;;;;;;;;5036482;28;20029;-59
2022/08/27 08:42:27;;;;;;;22.65;21.38;;;;;;;;;;5034224;28;20525;-59
2022/08/27 08:44:54;;;;;;;36.88;34.97;;;;;;;;;;5034720;28;20056;-60
2022/08/27 08:47:30;;;;;;;31.38;29.55;;;;;;;;;;5033793;28;20041;-60
2022/08/27 08:50:07;;;;;;;38.08;36.10;;;;;;;;;;5038373;28;20036;-60
2022/08/27 08:52:49;;;;;;;42.30;39.97;;;;;;;;;;5034667;28;20045;-60
2022/08/27 08:55:40;;;;;;;34.08;32.17;;;;;;;;;;5036796;28;20037;-59
2022/08/27 08:58:05;;;;;;;21.13;19.95;;;;;;;;;;5034286;28;20037;-60
2022/08/27 09:00:31;;;;;;;35.63;33.75;;;;;;;;;;5033688;28;20075;-59
2022/08/27 09:02:57;;;;;;;29.77;28.23;;;;;;;;;;5037988;28;20037;-59
2022/08/27 09:05:24;;;;;;;32.00;30.27;;;;;;;;;;5035045;28;20060;-59
2022/08/27 09:07:56;;;;;;;27.45;25.95;;;;;;;;;;5035312;28;20128;-59
2022/08/27 09:10:40;;;;;;;22.58;21.38;;;;;;;;;;5037056;28;20467;-59
2022/08/27 09:13:44;;;;;;;43.25;41.03;;;;;;;;;;5034667;28;20131;-59
2022/08/27 09:16:10;;;;;;;40.47;38.35;;;;;;;;;;4997947;28;20347;-59
2022/08/27 09:18:39;;;;;;;33.72;31.98;;;;;;;;;;5034726;28;20029;-59
2022/08/27 09:21:32;;;;;;;48.70;46.20;;;;;;;;;;5033423;28;20053;-59
2022/08/27 09:24:03;;;;;;;25.25;23.88;;;;;;;;;;5036798;28;20021;-59
2022/08/27 09:26:34;;;;;;;29.40;27.85;;;;;;;;;;5033742;28;20040;-59
2022/08/27 09:29:17;;;;;;;17.00;15.90;;;;;;;;;;5034442;28;20029;-59
2022/08/27 09:31:43;;;;;;;19.13;18.08;;;;;;;;;;5033577;28;20040;-59
2022/08/27 09:34:08;;;;;;;18.15;17.15;;;;;;;;;;5033993;28;20390;-59
2022/08/27 09:36:34;;;;;;;15.52;14.63;;;;;;;;;;5030883;28;20069;-59
2022/08/27 09:39:04;;;;;;;22.13;20.92;;;;;;;;;;5038606;28;20458;-59
2022/08/27 09:41:38;;;;;;;15.38;14.48;;;;;;;;;;5036023;28;20053;-59
2022/08/27 09:44:10;;;;;;;22.10;20.90;;;;;;;;;;5041257;28;20045;-59
2022/08/27 09:46:36;;;;;;;24.38;23.08;;;;;;;;;;5031565;28;20034;-59
2022/08/27 09:49:13;;;;;;;10.77;10.13;;;;;;;;;;5032930;28;20144;-59
2022/08/27 09:51:41;;;;;;;22.02;20.77;;;;;;;;;;5030739;28;20127;-58
2022/08/27 09:54:07;;;;;;;21.42;20.13;;;;;;;;;;5036654;28;20238;-59
2022/08/27 09:56:34;;;;;;;26.75;25.30;;;;;;;;;;5033225;28;20032;-59
2022/08/27 09:59:11;;;;;;;17.10;16.08;;;;;;;;;;5035159;28;20040;-59
2022/08/27 10:01:52;;;;;;;15.75;14.85;;;;;;;;;;5034361;28;20463;-58
2022/08/27 10:04:32;;;;;;;17.27;16.33;;;;;;;;;;5036088;28;20041;-59
2022/08/27 10:07:10;;;;;;;18.33;17.30;;;;;;;;;;5035321;28;20033;-59
2022/08/27 10:09:45;;;;;;;22.15;20.95;;;;;;;;;;5033059;28;20370;-59
2022/08/27 10:12:19;;;;;;;19.27;18.17;;;;;;;;;;5034995;28;20025;-59
2022/08/27 10:14:53;;;;;;;27.90;26.42;;;;;;;;;;5036911;28;20036;-59
2022/08/27 10:17:59;;;;;;;15.52;14.52;;;;;;;;;;5037836;28;20040;-58
2022/08/27 10:20:38;;;;;;;21.85;20.67;;;;;;;;;;5004277;28;20037;-58
2022/08/27 10:23:12;;;;;;;22.52;21.27;;;;;;;;;;5036535;28;20059;-58
2022/08/27 10:25:53;;;;;;;19.65;18.55;;;;;;;;;;5038026;28;20029;-58
2022/08/27 10:28:35;;;;;;;10.50;9.82;;;;;;;;;;5037498;28;20040;-59
2022/08/27 10:31:22;;;;;;;8.77;8.18;;;;;;;;;;5037221;28;20030;-59
2022/08/27 10:33:59;;;;;;;10.38;9.70;;;;;;;;;;5039103;28;20525;-59
2022/08/27 10:36:52;;;;;;;9.40;8.80;;;;;;;;;;5037437;28;20422;-59
2022/08/27 10:39:32;;;;;;;12.25;11.50;;;;;;;;;;5036003;28;20538;-59
2022/08/27 10:42:05;;;;;;;;;;;;;;;;;;5037676;28;20702;-59
2022/08/27 10:44:53;;;;;;;8.27;7.68;;;;;;;;;;5045474;28;20255;-59
2022/08/27 10:47:27;;;;;;;9.43;8.82;;;;;;;;;;5036715;28;20037;-59
2022/08/27 10:50:26;;;;;;;16.13;15.20;;;;;;;;;;5039443;28;20472;-59
2022/08/27 10:53:01;;;;;;;11.02;10.23;;;;;;;;;;5027946;28;20095;-59
2022/08/27 10:55:31;;;;;;;11.05;10.35;;;;;;;;;;5037836;28;20117;-60
2022/08/27 10:58:15;;;;;;;;;;;;;;;;;;5033990;28;20033;-60
2022/08/27 11:00:57;;;;;;;13.02;12.23;;;;;;;;;;5037555;28;20358;-58
2022/08/27 11:03:25;;;;;;;13.40;12.60;;;;;;;;;;5034562;28;20038;-58
2022/08/27 11:05:51;;;;;;;12.82;12.02;;;;;;;;;;5037352;28;20438;-58
2022/08/27 11:08:22;;;;;;;13.13;12.32;;;;;;;;;;5037841;28;20044;-59
2022/08/27 11:10:53;;;;;;;9.55;8.95;;;;;;;;;;5035338;28;20026;-60
2022/08/27 11:13:27;;;;;;;;;;;;;;;;;;5037297;28;20029;-59
2022/08/27 11:15:55;;;;;;;13.98;13.02;;;;;;;;;;5036248;28;19952;-59
2022/08/27 11:18:38;;;;;;;12.02;11.32;;;;;;;;;;5034591;28;20460;-59
2022/08/27 11:21:12;;;;;;;8.40;7.90;;;;;;;;;;5034649;28;20056;-60
2022/08/27 11:23:45;;;;;;;13.77;12.98;;;;;;;;;;5034546;28;20079;-60
2022/08/27 11:26:11;;;;;;;19.67;18.55;;;;;;;;;;5036244;28;20551;-60
2022/08/27 11:28:41;;;;;;;12.50;11.70;;;;;;;;;;5037933;28;20033;-60
2022/08/27 11:31:52;;;;;;;11.38;10.68;;;;;;;;;;5037094;28;20029;-60
2022/08/27 11:34:29;;;;;;;15.07;14.18;;;;;;;;;;5034304;28;20032;-60
2022/08/27 11:37:06;;;;;;;12.18;11.48;;;;;;;;;;5034943;28;20033;-60
2022/08/27 11:40:04;;;;;;;14.07;13.27;;;;;;;;;;5035567;28;20601;-60
2022/08/27 11:42:47;;;;;;;16.98;15.98;;;;;;;;;;5039094;28;20025;-60
2022/08/27 11:45:27;;;;;;;14.40;13.60;;;;;;;;;;5033413;28;20037;-60
2022/08/27 11:47:54;;;;;;;;;;;;;;;;;;5033266;28;20388;-60
2022/08/27 11:50:22;;;;;;;12.73;11.93;;;;;;;;;;5035933;28;20090;-59
2022/08/27 11:53:06;;;;;;;13.13;12.32;;;;;;;;;;5034139;28;20040;-60
2022/08/27 11:55:35;;;;;;;12.52;11.73;;;;;;;;;;5035228;28;20394;-59
2022/08/27 11:58:16;;;;;;;12.75;11.95;;;;;;;;;;5035880;28;20056;-60
2022/08/27 12:00:43;;;;;;;15.43;14.52;;;;;;;;;;5037443;28;20170;-59
2022/08/27 12:03:17;;;;;;;11.95;11.25;;;;;;;;;;5033786;28;20033;-60
2022/08/27 12:05:43;;;;;;;10.77;10.07;;;;;;;;;;5035245;28;20097;-59
2022/08/27 12:08:20;;;;;;;14.07;13.27;;;;;;;;;;5038447;28;20084;-60
2022/08/27 12:11:01;;;;;;;12.18;11.48;;;;;;;;;;5033942;28;20030;-60
2022/08/27 12:14:04;;;;;;;13.10;12.30;;;;;;;;;;5037443;28;20069;-58
2022/08/27 12:16:34;;;;;;;12.77;11.98;;;;;;;;;;5035660;28;20068;-59
2022/08/27 12:19:07;;;;;;;11.02;10.25;;;;;;;;;;5036401;28;20352;-60
2022/08/27 12:21:39;;;;;;;10.98;10.27;;;;;;;;;;5036083;28;20036;-60
2022/08/27 12:24:19;;;;;;;12.10;11.40;;;;;;;;;;5037654;28;20114;-60
2022/08/27 12:27:14;;;;;;;12.00;11.27;;;;;;;;;;5037602;28;20033;-60
2022/08/27 12:29:46;;;;;;;14.20;13.30;;;;;;;;;;5019168;28;20052;-60
2022/08/27 12:32:38;;;;;;;15.70;14.80;;;;;;;;;;5034526;28;20044;-60
2022/08/27 12:35:31;;;;;;;13.07;12.27;;;;;;;;;;5039205;28;20086;-60
2022/08/27 12:37:59;;;;;;;17.50;16.50;;;;;;;;;;5035755;28;20580;-60
2022/08/27 12:40:36;;;;;;;20.73;19.55;;;;;;;;;;5037124;28;20367;-59
2022/08/27 12:43:10;;;;;;;18.63;17.63;;;;;;;;;;5035167;28;20029;-60
2022/08/27 12:45:44;;;;;;;19.98;18.85;;;;;;;;;;5035641;28;20037;-61
2022/08/27 12:48:09;;;;;;;15.07;14.02;;;;;;;;;;5038795;28;20328;-61
2022/08/27 12:50:35;;;;;;;15.00;14.15;;;;;;;;;;5037730;28;20039;-61
2022/08/27 12:53:23;;;;;;;16.23;15.32;;;;;;;;;;5031944;28;20025;-60
2022/08/27 12:56:00;;;;;;;13.68;12.88;;;;;;;;;;5030960;28;20119;-61
2022/08/27 12:58:45;;;;;;;17.20;16.20;;;;;;;;;;5032404;28;20041;-60
2022/08/27 13:01:25;;;;;;;21.48;20.27;;;;;;;;;;4996032;28;20072;-60
2022/08/27 13:03:54;;;;;;;17.95;16.92;;;;;;;;;;5035661;28;20045;-60
2022/08/27 13:06:27;;;;;;;13.43;12.52;;;;;;;;;;5035601;28;20051;-60
2022/08/27 13:08:56;;;;;;;13.18;12.38;;;;;;;;;;5038398;28;20025;-60
2022/08/27 13:11:25;;;;;;;16.20;15.27;;;;;;;;;;5034575;28;20036;-61
2022/08/27 13:14:02;;;;;;;14.13;13.23;;;;;;;;;;5032864;28;20068;-61
2022/08/27 13:16:28;;;;;;;30.13;28.55;;;;;;;;;;5035039;28;20443;-61
2022/08/27 13:18:54;;;;;;;20.42;19.23;;;;;;;;;;5033712;28;20367;-60
2022/08/27 13:21:26;;;;;;;18.67;17.65;;;;;;;;;;5033033;28;20029;-60
2022/08/27 13:24:01;;;;;;;19.90;18.80;;;;;;;;;;5032163;28;20478;-61
2022/08/27 13:26:30;;;;;;;25.27;23.92;;;;;;;;;;5034986;28;20123;-61
2022/08/27 13:28:56;;;;;;;21.38;20.17;;;;;;;;;;5032409;28;20471;-61
2022/08/27 13:31:24;;;;;;;19.60;18.30;;;;;;;;;;5033934;28;20025;-61
2022/08/27 13:33:51;;;;;;;18.05;17.05;;;;;;;;;;5037914;28;20029;-61
2022/08/27 13:36:50;;;;;;;23.88;22.58;;;;;;;;;;5035545;28;20431;-61
2022/08/27 13:39:16;;;;;;;20.88;19.77;;;;;;;;;;5032567;28;20037;-61
2022/08/27 13:41:41;;;;;;;21.75;20.20;;;;;;;;;;5035654;28;20032;-62
2022/08/27 13:44:34;;;;;;;20.95;19.83;;;;;;;;;;5033696;28;20029;-61
2022/08/27 13:47:15;;;;;;;19.05;18.05;;;;;;;;;;5028344;28;20045;-62
2022/08/27 13:49:41;;;;;;;20.45;19.33;;;;;;;;;;5037213;28;20037;-61
2022/08/27 13:52:12;;;;;;;21.45;20.27;;;;;;;;;;5039405;28;20103;-62
2022/08/27 13:54:38;;;;;;;20.40;19.20;;;;;;;;;;5036120;28;20203;-62
2022/08/27 13:57:08;;;;;;;20.23;19.13;;;;;;;;;;5040036;28;20133;-62
2022/08/27 13:59:37;;;;;;;22.25;21.05;;;;;;;;;;5041127;28;20049;-62
2022/08/27 14:02:20;;;;;;;19.05;17.95;;;;;;;;;;5038362;28;20029;-62
2022/08/27 14:05:11;;;;;;;20.88;19.67;;;;;;;;;;5036562;28;20106;-62
2022/08/27 14:07:58;;;;;;;19.92;18.83;;;;;;;;;;5030777;28;20064;-62
2022/08/27 14:10:28;;;;;;;14.80;14.00;;;;;;;;;;5037858;28;20120;-62
2022/08/27 14:12:58;;;;;;;11.90;11.20;;;;;;;;;;5039854;28;20147;-62
2022/08/27 14:15:37;;;;;;;12.07;11.37;;;;;;;;;;5039747;28;20465;-61
2022/08/27 14:18:05;;;;;;;16.50;15.50;;;;;;;;;;5039149;28;20282;-62
2022/08/27 14:20:31;;;;;;;16.75;15.65;;;;;;;;;;5046158;28;20029;-61
2022/08/27 14:22:57;;;;;;;15.38;14.48;;;;;;;;;;5039772;28;20396;-62
2022/08/27 14:25:23;;;;;;;15.70;14.80;;;;;;;;;;5035633;28;20056;-62
2022/08/27 14:27:51;;;;;;;16.02;15.13;;;;;;;;;;5037092;28;20684;-62
2022/08/27 14:30:19;;;;;;;13.80;13.00;;;;;;;;;;5038822;28;20105;-61
2022/08/27 14:32:44;;;;;;;17.10;16.10;;;;;;;;;;5039642;28;20033;-61
2022/08/27 14:35:10;;;;;;;16.27;15.27;;;;;;;;;;5037447;28;20078;-62
2022/08/27 14:37:40;;;;;;;13.13;12.32;;;;;;;;;;5018720;28;20604;-62
2022/08/27 14:40:07;;;;;;;13.48;12.68;;;;;;;;;;5037883;28;20483;-61
2022/08/27 14:42:33;;;;;;;19.15;18.05;;;;;;;;;;5039933;28;20441;-61